Back to Top

Language: 

My Weather Underground Personal Weather Station Historical Data with Graphs...

Delerius Weather Station Historical Data
Daily Summary for February 8, 2017 Units:  English    Metric   Both
« Previous Day
Next Day »
Daily Weekly Monthly Yearly Custom
  High: Low: Average:
Temperature: 39.5 °F 35.1 °F 37.5 °F
Dew Point: 38.3 °F 33.4 °F 35.9 °F
Humidity: 97 % 88 % 94 %
Wind Speed: 4.0 mph 0.0 mph 1.2 mph
Wind Gust: 20.0 mph - -
Wind:- - East
Pressure: 30.47 in 30.15 in -
Precipitation: 0.03 in    
Historical Graphs
 
 
Tabular Data for February 8, 2017
Time Temperature Dew Point Pressure Wind Wind Speed Wind Gust Humidity Rainfall Rate (Hourly) solar Conditions
00:00 38.3 °F 36.7 °F 30.15 in Calm   20.0 mph 94 % 0.00 in 0 W/m2
00:05 38.4 °F 37.1 °F 30.16 in Calm   20.0 mph 95 % 0.00 in 0 W/m2
00:15 38.4 °F 37.1 °F 30.16 in Calm     95 % 0.00 in 0 W/m2
00:25 38.1 °F 36.5 °F 30.16 in Calm     94 % 0.00 in 0 W/m2
00:30 38.0 °F 36.4 °F 30.16 in Calm     94 % 0.00 in 0 W/m2
00:35 37.9 °F 36.3 °F 30.16 in Calm     94 % 0.00 in 0 W/m2
00:40 37.8 °F 36.5 °F 30.16 in Calm     95 % 0.00 in 0 W/m2
00:45 37.7 °F 36.1 °F 30.16 in Calm     94 % 0.00 in 0 W/m2
00:50 37.5 °F 35.9 °F 30.16 in Calm     94 % 0.00 in 0 W/m2
01:00 37.1 °F 35.5 °F 30.16 in Calm     94 % 0.00 in 0 W/m2
01:05 37.0 °F 35.4 °F 30.16 in Calm   2.0 mph 94 % 0.00 in 0 W/m2
01:10 37.0 °F 35.7 °F 30.16 in Calm   2.0 mph 95 % 0.00 in 0 W/m2
01:15 37.0 °F 35.7 °F 30.16 in Calm   2.0 mph 95 % 0.00 in 0 W/m2
01:20 36.9 °F 35.6 °F 30.16 in Calm   2.0 mph 95 % 0.00 in 0 W/m2
01:30 36.8 °F 35.5 °F 30.16 in Calm   2.0 mph 95 % 0.00 in 0 W/m2
01:35 36.6 °F 35.0 °F 30.16 in Calm   2.0 mph 94 % 0.00 in 0 W/m2
01:40 36.2 °F 34.6 °F 30.17 in Calm   2.0 mph 94 % 0.00 in 0 W/m2
01:45 36.0 °F 34.4 °F 30.17 in Calm   2.0 mph 94 % 0.00 in 0 W/m2
01:50 35.9 °F 34.6 °F 30.17 in Calm   2.0 mph 95 % 0.00 in 0 W/m2
01:55 35.8 °F 34.5 °F 30.18 in Calm   2.0 mph 95 % 0.00 in 0 W/m2
02:05 35.8 °F 34.5 °F 30.18 in Calm   2.0 mph 95 % 0.00 in 0 W/m2
02:10 35.9 °F 34.6 °F 30.18 in Calm   2.0 mph 95 % 0.00 in 0 W/m2
02:15 36.0 °F 35.0 °F 30.18 in Calm   2.0 mph 96 % 0.00 in 0 W/m2
02:20 36.0 °F 34.7 °F 30.18 in Calm   2.0 mph 95 % 0.00 in 0 W/m2
02:25 36.0 °F 34.7 °F 30.19 in Calm   2.0 mph 95 % 0.00 in 0 W/m2
02:35 36.1 °F 35.1 °F 30.19 in Calm   2.0 mph 96 % 0.00 in 0 W/m2
02:40 36.1 °F 34.8 °F 30.19 in Calm   2.0 mph 95 % 0.00 in 0 W/m2
02:45 36.0 °F 34.7 °F 30.19 in Calm   2.0 mph 95 % 0.00 in 0 W/m2
02:50 36.0 °F 34.7 °F 30.19 in Calm   2.0 mph 95 % 0.00 in 0 W/m2
02:55 36.1 °F 35.1 °F 30.19 in Calm   2.0 mph 96 % 0.00 in 0 W/m2
03:00 36.2 °F 35.2 °F 30.20 in Calm   2.0 mph 96 % 0.00 in 0 W/m2
03:10 36.3 °F 35.3 °F 30.20 in Calm   2.0 mph 96 % 0.00 in 0 W/m2
03:15 36.4 °F 35.4 °F 30.20 in Calm   2.0 mph 96 % 0.00 in 0 W/m2
03:20 36.5 °F 35.5 °F 30.20 in Calm   2.0 mph 96 % 0.00 in 0 W/m2
03:25 36.5 °F 35.5 °F 30.20 in Calm   2.0 mph 96 % 0.00 in 0 W/m2
03:30 36.6 °F 35.6 °F 30.21 in Calm   2.0 mph 96 % 0.00 in 0 W/m2
03:40 36.7 °F 35.7 °F 30.21 in Calm   2.0 mph 96 % 0.00 in 0 W/m2
03:45 36.8 °F 35.8 °F 30.22 in Calm   2.0 mph 96 % 0.00 in 0 W/m2
03:50 36.9 °F 35.9 °F 30.22 in Calm   2.0 mph 96 % 0.00 in 0 W/m2
03:55 36.9 °F 35.9 °F 30.22 in Calm   2.0 mph 96 % 0.00 in 0 W/m2
04:00 37.1 °F 36.1 °F 30.22 in Calm   2.0 mph 96 % 0.00 in 0 W/m2
04:05 37.3 °F 36.3 °F 30.23 in Calm   2.0 mph 96 % 0.00 in 0 W/m2
04:15 37.8 °F 36.8 °F 30.23 in NNE 1.0 mph 4.0 mph 96 % 0.00 in 0 W/m2
04:20 38.0 °F 37.0 °F 30.23 in NNE 2.0 mph 4.0 mph 96 % 0.00 in 0 W/m2
04:25 38.1 °F 37.1 °F 30.23 in NE 3.0 mph 4.0 mph 96 % 0.00 in 0 W/m2
04:30 38.3 °F 37.3 °F 30.24 in NNE 2.0 mph 2.0 mph 96 % 0.00 in 0 W/m2
04:35 38.4 °F 37.4 °F 30.24 in NNE 1.0 mph 2.0 mph 96 % 0.00 in 0 W/m2
04:45 38.5 °F 37.5 °F 30.24 in NNE 1.0 mph 2.0 mph 96 % 0.00 in 0 W/m2
04:50 38.5 °F 37.5 °F 30.24 in NNE 1.0 mph 1.0 mph 96 % 0.00 in 0 W/m2
04:55 38.5 °F 37.5 °F 30.24 in NE 1.0 mph 2.0 mph 96 % 0.00 in 0 W/m2
05:00 38.6 °F 37.6 °F 30.25 in North 1.0 mph 2.0 mph 96 % 0.00 in 0 W/m2
05:05 38.6 °F 37.6 °F 30.25 in NNE 1.0 mph 2.0 mph 96 % 0.00 in 0 W/m2
05:15 38.8 °F 37.8 °F 30.25 in NNE 2.0 mph 3.0 mph 96 % 0.00 in 0 W/m2
05:20 38.8 °F 37.8 °F 30.26 in NNE 2.0 mph 3.0 mph 96 % 0.00 in 0 W/m2
05:25 38.9 °F 37.9 °F 30.26 in NE 3.0 mph 3.0 mph 96 % 0.00 in 0 W/m2
05:30 38.9 °F 37.9 °F 30.26 in NE 2.0 mph 2.0 mph 96 % 0.00 in 0 W/m2
05:35 39.0 °F 38.0 °F 30.26 in Calm   2.0 mph 96 % 0.00 in 0 W/m2
05:40 39.0 °F 38.0 °F 30.26 in Calm   2.0 mph 96 % 0.00 in 0 W/m2
05:50 39.1 °F 38.1 °F 30.27 in ENE 1.0 mph 1.0 mph 96 % 0.00 in 0 W/m2
05:55 39.2 °F 38.2 °F 30.27 in Calm   5.0 mph 96 % 0.00 in 0 W/m2
06:00 39.2 °F 38.2 °F 30.27 in ENE 1.0 mph 1.0 mph 96 % 0.00 in 0 W/m2
06:10 39.3 °F 38.3 °F 30.27 in East 1.0 mph 1.0 mph 96 % 0.00 in 0 W/m2
06:15 39.3 °F 38.3 °F 30.27 in ENE 1.0 mph 2.0 mph 96 % 0.00 in 0 W/m2
06:20 39.2 °F 38.2 °F 30.27 in East 1.0 mph 1.0 mph 96 % 0.00 in 0 W/m2
06:30 39.2 °F 38.2 °F 30.28 in NE 2.0 mph 2.0 mph 96 % 0.00 in 0 W/m2
06:35 39.2 °F 38.2 °F 30.28 in ENE 2.0 mph 2.0 mph 96 % 0.00 in 0 W/m2
06:40 39.1 °F 38.1 °F 30.28 in East 2.0 mph 3.0 mph 96 % 0.00 in 0 W/m2
06:45 39.1 °F 38.1 °F 30.28 in ENE 1.0 mph 3.0 mph 96 % 0.00 in 0 W/m2
06:50 39.1 °F 38.3 °F 30.28 in East 1.0 mph 4.0 mph 97 % 0.00 in 0 W/m2
07:00 39.0 °F 38.2 °F 30.28 in East 3.0 mph 5.0 mph 97 % 0.00 in 0 W/m2
07:05 38.9 °F 38.1 °F 30.29 in NE 4.0 mph 5.0 mph 97 % 0.00 in 0 W/m2
07:10 38.9 °F 38.1 °F 30.30 in ENE 3.0 mph 3.0 mph 97 % 0.00 in 0 W/m2
07:15 38.8 °F 38.0 °F 30.30 in ENE 2.0 mph 5.0 mph 97 % 0.00 in 0 W/m2
07:20 38.7 °F 37.9 °F 30.30 in ESE 3.0 mph 3.0 mph 97 % 0.00 in 0 W/m2
07:30 38.5 °F 37.5 °F 30.31 in ESE 3.0 mph 3.0 mph 96 % 0.00 in 0 W/m2
07:35 38.5 °F 37.5 °F 30.31 in East 3.0 mph 3.0 mph 96 % 0.00 in 0 W/m2
07:40 38.5 °F 37.5 °F 30.31 in ESE 3.0 mph 3.0 mph 96 % 0.00 in 0 W/m2
07:45 38.4 °F 37.6 °F 30.32 in ESE 3.0 mph 4.0 mph 97 % 0.00 in 0 W/m2
07:50 38.5 °F 37.7 °F 30.32 in ESE 2.0 mph 4.0 mph 97 % 0.00 in 0 W/m2
07:55 38.4 °F 37.6 °F 30.32 in East 2.0 mph 5.0 mph 97 % 0.00 in 0 W/m2
08:05 38.3 °F 37.5 °F 30.32 in East 2.0 mph 4.0 mph 97 % 0.05 in 5 W/m2
08:10 38.3 °F 37.5 °F 30.32 in East 2.0 mph 2.0 mph 97 % 0.05 in 5 W/m2
08:15 38.3 °F 37.5 °F 30.33 in East 1.0 mph 6.0 mph 97 % 0.06 in 5 W/m2
08:20 38.2 °F 37.2 °F 30.33 in ESE 1.0 mph 1.0 mph 96 % 0.06 in 5 W/m2
08:25 38.2 °F 37.2 °F 30.33 in ENE 1.0 mph 2.0 mph 96 % 0.05 in 0 W/m2
08:35 38.1 °F 37.1 °F 30.34 in East 2.0 mph 2.0 mph 96 % 0.04 in 0 W/m2
08:40 38.0 °F 37.0 °F 30.34 in East 3.0 mph 4.0 mph 96 % 0.04 in 5 W/m2
08:45 37.9 °F 37.1 °F 30.34 in East 2.0 mph 4.0 mph 97 % 0.00 in 5 W/m2
08:50 37.9 °F 37.1 °F 30.34 in East 2.0 mph 2.0 mph 97 % 0.00 in 5 W/m2
08:55 37.9 °F 37.1 °F 30.34 in ENE 2.0 mph 4.0 mph 97 % 0.00 in 5 W/m2
09:00 37.8 °F 37.0 °F 30.34 in ENE 2.0 mph 5.0 mph 97 % 0.00 in 5 W/m2
09:10 37.8 °F 37.0 °F 30.34 in East 3.0 mph 3.0 mph 97 % 0.00 in 5 W/m2
09:15 37.7 °F 36.9 °F 30.35 in East 3.0 mph 3.0 mph 97 % 0.00 in 5 W/m2
09:20 37.7 °F 36.9 °F 30.35 in East 3.0 mph 5.0 mph 97 % 0.00 in 5 W/m2
09:25 37.7 °F 36.9 °F 30.35 in ESE 2.0 mph 5.0 mph 97 % 0.00 in 7 W/m2
09:30 37.7 °F 36.9 °F 30.35 in East 3.0 mph 3.0 mph 97 % 0.00 in 7 W/m2
09:40 37.7 °F 36.9 °F 30.35 in ESE 2.0 mph 5.0 mph 97 % 0.00 in 19 W/m2
09:45 37.7 °F 36.9 °F 30.35 in East 2.0 mph 5.0 mph 97 % 0.00 in 21 W/m2
09:50 37.7 °F 36.9 °F 30.35 in ESE 2.0 mph 4.0 mph 97 % 0.00 in 18 W/m2
09:55 37.6 °F 36.8 °F 30.35 in ESE 2.0 mph 4.0 mph 97 % 0.00 in 19 W/m2
10:00 37.6 °F 36.8 °F 30.35 in ENE 3.0 mph 3.0 mph 97 % 0.00 in 18 W/m2
10:05 37.7 °F 36.9 °F 30.35 in East 2.0 mph 3.0 mph 97 % 0.00 in 14 W/m2
10:15 37.7 °F 36.9 °F 30.36 in East 2.0 mph 2.0 mph 97 % 0.00 in 47 W/m2
10:20 37.7 °F 36.9 °F 30.36 in East 1.0 mph 2.0 mph 97 % 0.00 in 35 W/m2
10:25 37.8 °F 37.0 °F 30.36 in East 1.0 mph 2.0 mph 97 % 0.00 in 33 W/m2
10:30 37.8 °F 37.0 °F 30.36 in East 1.0 mph 1.0 mph 97 % 0.00 in 32 W/m2
10:35 37.8 °F 37.0 °F 30.36 in East 1.0 mph 2.0 mph 97 % 0.00 in 44 W/m2
10:45 37.9 °F 37.1 °F 30.36 in ENE 1.0 mph 3.0 mph 97 % 0.00 in 40 W/m2
10:50 37.8 °F 37.0 °F 30.37 in ENE 1.0 mph 2.0 mph 97 % 0.00 in 35 W/m2
10:55 37.8 °F 37.0 °F 30.37 in East 2.0 mph 2.0 mph 97 % 0.00 in 39 W/m2
11:00 37.8 °F 37.0 °F 30.37 in ENE 2.0 mph 2.0 mph 97 % 0.00 in 32 W/m2
11:05 37.8 °F 37.0 °F 30.37 in ENE 2.0 mph 2.0 mph 97 % 0.00 in 33 W/m2
11:10 37.8 °F 37.0 °F 30.37 in ENE 2.0 mph 2.0 mph 97 % 0.00 in 47 W/m2
11:20 37.9 °F 37.1 °F 30.37 in East 1.0 mph 1.0 mph 97 % 0.00 in 72 W/m2
11:25 37.9 °F 37.1 °F 30.38 in East 1.0 mph 2.0 mph 97 % 0.00 in 70 W/m2
11:30 38.0 °F 37.2 °F 30.38 in ESE 1.0 mph 2.0 mph 97 % 0.00 in 84 W/m2
11:35 38.0 °F 37.2 °F 30.38 in ESE 1.0 mph 2.0 mph 97 % 0.00 in 76 W/m2
11:40 38.0 °F 37.2 °F 30.38 in ESE 1.0 mph 2.0 mph 97 % 0.00 in 83 W/m2
11:50 38.1 °F 37.1 °F 30.38 in East 2.0 mph 2.0 mph 96 % 0.00 in 97 W/m2
11:55 38.2 °F 37.4 °F 30.38 in East 2.0 mph 2.0 mph 97 % 0.00 in 98 W/m2
12:00 38.3 °F 37.5 °F 30.38 in ESE 1.0 mph 3.0 mph 97 % 0.00 in 93 W/m2
12:05 38.4 °F 37.6 °F 30.38 in ENE 1.0 mph 3.0 mph 97 % 0.00 in 109 W/m2
12:10 38.5 °F 37.5 °F 30.38 in ENE 1.0 mph 1.0 mph 96 % 0.00 in 105 W/m2
12:15 38.4 °F 37.4 °F 30.38 in East 1.0 mph 2.0 mph 96 % 0.00 in 72 W/m2
12:25 38.4 °F 37.4 °F 30.39 in ENE 1.0 mph 2.0 mph 96 % 0.00 in 65 W/m2
12:30 38.4 °F 37.4 °F 30.39 in East 1.0 mph 2.0 mph 96 % 0.00 in 47 W/m2
12:35 38.3 °F 37.0 °F 30.39 in East 1.0 mph 2.0 mph 95 % 0.00 in 23 W/m2
12:40 38.2 °F 36.9 °F 30.39 in East 1.0 mph 1.0 mph 95 % 0.00 in 26 W/m2
12:50 38.3 °F 37.0 °F 30.39 in NE 2.0 mph 6.0 mph 95 % 0.00 in 32 W/m2
12:55 38.2 °F 36.9 °F 30.39 in ENE 2.0 mph 6.0 mph 95 % 0.00 in 81 W/m2
13:00 38.2 °F 36.9 °F 30.39 in East 2.0 mph 6.0 mph 95 % 0.00 in 91 W/m2
13:05 38.3 °F 37.0 °F 30.39 in East 2.0 mph 6.0 mph 95 % 0.00 in 125 W/m2
13:15 38.4 °F 36.8 °F 30.39 in East 3.0 mph 3.0 mph 94 % 0.00 in 98 W/m2
13:20 38.5 °F 36.9 °F 30.39 in ENE 1.0 mph 2.0 mph 94 % 0.00 in 132 W/m2
13:25 38.7 °F 37.1 °F 30.38 in East 1.0 mph 2.0 mph 94 % 0.00 in 176 W/m2
13:30 38.9 °F 37.3 °F 30.39 in ENE 1.0 mph 1.0 mph 94 % 0.00 in 149 W/m2
13:40 39.1 °F 37.2 °F 30.39 in ENE 2.0 mph 5.0 mph 93 % 0.00 in 135 W/m2
13:45 39.0 °F 36.9 °F 30.39 in ENE 3.0 mph 5.0 mph 92 % 0.00 in 123 W/m2
13:50 39.0 °F 36.9 °F 30.39 in East 3.0 mph 6.0 mph 92 % 0.00 in 121 W/m2
13:55 39.0 °F 36.6 °F 30.39 in ENE 3.0 mph 6.0 mph 91 % 0.00 in 98 W/m2
14:05 39.0 °F 36.6 °F 30.39 in East 2.0 mph 4.0 mph 91 % 0.00 in 302 W/m2
14:10 39.2 °F 36.8 °F 30.39 in ESE 2.0 mph 2.0 mph 91 % 0.00 in 176 W/m2
14:15 39.3 °F 36.9 °F 30.40 in ESE 1.0 mph 2.0 mph 91 % 0.00 in 137 W/m2
14:20 39.5 °F 36.8 °F 30.40 in East 1.0 mph 2.0 mph 90 % 0.00 in 56 W/m2
14:25 39.4 °F 36.4 °F 30.40 in ESE 2.0 mph 7.0 mph 89 % 0.00 in 51 W/m2
14:35 39.3 °F 36.3 °F 30.40 in East 3.0 mph 3.0 mph 89 % 0.00 in 77 W/m2
14:40 39.1 °F 36.1 °F 30.39 in ENE 2.0 mph 2.0 mph 89 % 0.00 in 113 W/m2
14:45 39.2 °F 36.2 °F 30.40 in NE 1.0 mph 4.0 mph 89 % 0.00 in 51 W/m2
14:50 39.1 °F 36.1 °F 30.40 in East 2.0 mph 2.0 mph 89 % 0.00 in 28 W/m2
14:55 39.0 °F 36.0 °F 30.40 in NE 3.0 mph 5.0 mph 89 % 0.00 in 21 W/m2
15:00 38.9 °F 36.2 °F 30.40 in East 3.0 mph 3.0 mph 90 % 0.00 in 47 W/m2
15:10 38.6 °F 35.9 °F 30.40 in East 2.0 mph 2.0 mph 90 % 0.00 in 79 W/m2
15:15 38.4 °F 36.0 °F 30.40 in East 2.0 mph 2.0 mph 91 % 0.00 in 72 W/m2
15:20 38.3 °F 35.9 °F 30.40 in ENE 3.0 mph 3.0 mph 91 % 0.00 in 72 W/m2
15:25 38.1 °F 35.7 °F 30.40 in ENE 3.0 mph 3.0 mph 91 % 0.00 in 76 W/m2
15:30 38.1 °F 35.7 °F 30.40 in ENE 2.0 mph 6.0 mph 91 % 0.00 in 76 W/m2
15:40 38.1 °F 35.7 °F 30.40 in ENE 1.0 mph 3.0 mph 91 % 0.00 in 70 W/m2
15:45 38.1 °F 36.0 °F 30.41 in East 1.0 mph 3.0 mph 92 % 0.00 in 49 W/m2
15:50 38.1 °F 36.0 °F 30.41 in East 1.0 mph 1.0 mph 92 % 0.00 in 56 W/m2
15:55 38.3 °F 36.2 °F 30.41 in Calm   5.0 mph 92 % 0.00 in 42 W/m2
16:00 38.3 °F 36.2 °F 30.41 in Calm   2.0 mph 92 % 0.00 in 37 W/m2
16:05 38.2 °F 36.1 °F 30.41 in East 1.0 mph 2.0 mph 92 % 0.00 in 47 W/m2
16:15 38.1 °F 35.7 °F 30.41 in NE 1.0 mph 2.0 mph 91 % 0.00 in 42 W/m2
16:20 38.0 °F 35.6 °F 30.41 in Calm   2.0 mph 91 % 0.00 in 28 W/m2
16:25 38.0 °F 35.6 °F 30.41 in NE 1.0 mph 2.0 mph 91 % 0.00 in 18 W/m2
16:30 38.0 °F 35.6 °F 30.41 in ENE 1.0 mph 1.0 mph 91 % 0.00 in 12 W/m2
16:35 37.9 °F 35.5 °F 30.41 in SE 1.0 mph 5.0 mph 91 % 0.00 in 11 W/m2
16:45 37.9 °F 35.5 °F 30.42 in SE 1.0 mph 2.0 mph 91 % 0.00 in 9 W/m2
16:50 37.8 °F 35.4 °F 30.42 in Calm   2.0 mph 91 % 0.00 in 5 W/m2
16:55 37.7 °F 35.3 °F 30.42 in Calm   2.0 mph 91 % 0.00 in 0 W/m2
17:00 37.7 °F 35.3 °F 30.42 in Calm   2.0 mph 91 % 0.00 in 0 W/m2
17:05 37.6 °F 35.2 °F 30.42 in Calm   2.0 mph 91 % 0.00 in 0 W/m2
17:10 37.6 °F 35.2 °F 30.42 in Calm   2.0 mph 91 % 0.00 in 0 W/m2
17:20 37.5 °F 35.1 °F 30.43 in NE 1.0 mph 2.0 mph 91 % 0.00 in 0 W/m2
17:25 37.4 °F 35.0 °F 30.43 in NE 2.0 mph 2.0 mph 91 % 0.00 in 0 W/m2
17:30 37.4 °F 34.7 °F 30.43 in ENE 3.0 mph 3.0 mph 90 % 0.00 in 0 W/m2
17:35 37.4 °F 34.7 °F 30.43 in East 2.0 mph 3.0 mph 90 % 0.00 in 0 W/m2
17:40 37.3 °F 34.6 °F 30.43 in East 1.0 mph 1.0 mph 90 % 0.00 in 0 W/m2
17:50 37.3 °F 34.6 °F 30.43 in East 2.0 mph 2.0 mph 90 % 0.00 in 0 W/m2
17:55 37.2 °F 34.5 °F 30.43 in ENE 2.0 mph 3.0 mph 90 % 0.00 in 0 W/m2
18:00 37.1 °F 34.2 °F 30.43 in ENE 2.0 mph 4.0 mph 89 % 0.00 in 0 W/m2
18:05 36.9 °F 34.0 °F 30.44 in ENE 3.0 mph 4.0 mph 89 % 0.00 in 0 W/m2
18:15 36.7 °F 33.5 °F 30.44 in East 2.0 mph 3.0 mph 88 % 0.00 in 0 W/m2
18:20 36.7 °F 33.5 °F 30.44 in ENE 2.0 mph 2.0 mph 88 % 0.00 in 0 W/m2
18:25 36.6 °F 33.4 °F 30.44 in ENE 2.0 mph 2.0 mph 88 % 0.00 in 0 W/m2
18:35 36.6 °F 33.7 °F 30.45 in ENE 1.0 mph 2.0 mph 89 % 0.00 in 0 W/m2
18:40 36.6 °F 33.7 °F 30.45 in East 1.0 mph 2.0 mph 89 % 0.00 in 0 W/m2
18:45 36.5 °F 33.6 °F 30.45 in ESE 1.0 mph 2.0 mph 89 % 0.00 in 0 W/m2
18:50 36.5 °F 33.6 °F 30.45 in ENE 1.0 mph 1.0 mph 89 % 0.00 in 0 W/m2
19:00 36.5 °F 33.8 °F 30.45 in ENE 1.0 mph 1.0 mph 90 % 0.00 in 0 W/m2
19:05 36.5 °F 33.8 °F 30.45 in ENE 1.0 mph 2.0 mph 90 % 0.00 in 0 W/m2
19:10 36.4 °F 33.7 °F 30.45 in ENE 1.0 mph 1.0 mph 90 % 0.00 in 0 W/m2
19:15 36.4 °F 33.7 °F 30.45 in East 1.0 mph 2.0 mph 90 % 0.00 in 0 W/m2
19:20 36.4 °F 33.7 °F 30.45 in East 1.0 mph 1.0 mph 90 % 0.00 in 0 W/m2
19:30 36.3 °F 33.9 °F 30.45 in ENE 1.0 mph 1.0 mph 91 % 0.00 in 0 W/m2
19:35 36.3 °F 33.9 °F 30.45 in ENE 2.0 mph 4.0 mph 91 % 0.00 in 0 W/m2
19:40 36.4 °F 34.0 °F 30.45 in ENE 2.0 mph 7.0 mph 91 % 0.00 in 0 W/m2
19:45 36.4 °F 34.3 °F 30.45 in ENE 2.0 mph 7.0 mph 92 % 0.00 in 0 W/m2
19:50 36.4 °F 34.3 °F 30.45 in ENE 1.0 mph 2.0 mph 92 % 0.00 in 0 W/m2
19:55 36.3 °F 34.2 °F 30.45 in ENE 1.0 mph 2.0 mph 92 % 0.00 in 0 W/m2
20:05 36.3 °F 34.2 °F 30.45 in ENE 1.0 mph 2.0 mph 92 % 0.00 in 0 W/m2
20:10 36.3 °F 34.2 °F 30.46 in East 1.0 mph 2.0 mph 92 % 0.00 in 0 W/m2
20:15 36.2 °F 34.1 °F 30.46 in ENE 1.0 mph 2.0 mph 92 % 0.00 in 0 W/m2
20:20 36.2 °F 34.1 °F 30.45 in ENE 1.0 mph 1.0 mph 92 % 0.00 in 0 W/m2
20:25 36.2 °F 34.4 °F 30.45 in Calm   2.0 mph 93 % 0.00 in 0 W/m2
20:35 36.1 °F 34.0 °F 30.45 in SE 3.0 mph 4.0 mph 92 % 0.00 in 0 W/m2
20:40 36.0 °F 33.9 °F 30.45 in East 3.0 mph 3.0 mph 92 % 0.00 in 0 W/m2
20:45 36.1 °F 34.0 °F 30.46 in ESE 2.0 mph 3.0 mph 92 % 0.00 in 0 W/m2
20:50 36.1 °F 34.3 °F 30.46 in ESE 1.0 mph 3.0 mph 93 % 0.00 in 0 W/m2
20:55 36.0 °F 34.2 °F 30.46 in East 2.0 mph 3.0 mph 93 % 0.00 in 0 W/m2
21:00 35.9 °F 34.1 °F 30.46 in East 2.0 mph 2.0 mph 93 % 0.00 in 0 W/m2
21:10 35.8 °F 34.0 °F 30.46 in East 1.0 mph 2.0 mph 93 % 0.00 in 0 W/m2
21:15 35.8 °F 34.0 °F 30.46 in East 1.0 mph 2.0 mph 93 % 0.00 in 0 W/m2
21:25 35.7 °F 33.9 °F 30.46 in East 1.0 mph 4.0 mph 93 % 0.00 in 0 W/m2
21:30 35.7 °F 33.9 °F 30.46 in East 1.0 mph 1.0 mph 93 % 0.00 in 0 W/m2
21:35 35.7 °F 33.9 °F 30.47 in East 1.0 mph 2.0 mph 93 % 0.00 in 0 W/m2
21:45 35.7 °F 33.9 °F 30.47 in Calm   2.0 mph 93 % 0.00 in 0 W/m2
21:50 35.7 °F 33.9 °F 30.46 in Calm   2.0 mph 93 % 0.00 in 0 W/m2
21:55 35.7 °F 33.9 °F 30.46 in Calm   2.0 mph 93 % 0.00 in 0 W/m2
22:00 35.7 °F 33.9 °F 30.46 in Calm   2.0 mph 93 % 0.00 in 0 W/m2
22:05 35.6 °F 33.8 °F 30.46 in Calm   2.0 mph 93 % 0.00 in 0 W/m2
22:15 35.5 °F 33.7 °F 30.46 in Calm   2.0 mph 93 % 0.00 in 0 W/m2
22:20 35.5 °F 33.7 °F 30.46 in Calm   2.0 mph 93 % 0.00 in 0 W/m2
22:25 35.5 °F 33.7 °F 30.46 in Calm   2.0 mph 93 % 0.00 in 0 W/m2
22:30 35.5 °F 33.9 °F 30.46 in Calm   2.0 mph 94 % 0.00 in 0 W/m2
22:35 35.4 °F 33.8 °F 30.46 in Calm   2.0 mph 94 % 0.00 in 0 W/m2
22:40 35.4 °F 33.6 °F 30.46 in Calm   2.0 mph 93 % 0.00 in 0 W/m2
22:50 35.4 °F 33.6 °F 30.46 in Calm   2.0 mph 93 % 0.00 in 0 W/m2
22:55 35.4 °F 33.8 °F 30.45 in Calm   2.0 mph 94 % 0.00 in 0 W/m2
23:00 35.4 °F 33.6 °F 30.46 in Calm   2.0 mph 93 % 0.00 in 0 W/m2
23:05 35.3 °F 33.5 °F 30.46 in Calm   2.0 mph 93 % 0.00 in 0 W/m2
23:10 35.3 °F 33.7 °F 30.46 in Calm   2.0 mph 94 % 0.00 in 0 W/m2
23:20 35.3 °F 33.7 °F 30.46 in Calm   2.0 mph 94 % 0.00 in 0 W/m2
23:25 35.3 °F 33.7 °F 30.46 in Calm   2.0 mph 94 % 0.00 in 0 W/m2
23:30 35.2 °F 33.6 °F 30.46 in Calm   2.0 mph 94 % 0.00 in 0 W/m2
23:35 35.2 °F 33.6 °F 30.46 in Calm   2.0 mph 94 % 0.00 in 0 W/m2
23:40 35.2 °F 33.6 °F 30.46 in Calm   2.0 mph 94 % 0.00 in 0 W/m2
23:45 35.2 °F 33.6 °F 30.46 in Calm   2.0 mph 94 % 0.00 in 0 W/m2
23:55 35.1 °F 33.5 °F 30.46 in Calm   2.0 mph 94 % 0.00 in 0 W/m2
Delerius-Weather
Compliments of Weather Underground - 2 mb

Data updates at regular intervals.